createdAt,value
2024-04-30T00:01:25.536Z,3.27
2024-04-30T00:04:33.120Z,2.93
2024-04-30T00:07:38.231Z,3.23
2024-04-30T00:10:43.085Z,3.37
2024-04-30T00:13:48.023Z,2.70
2024-04-30T00:16:53.152Z,3.30
2024-04-30T00:20:00.994Z,3.43
2024-04-30T00:23:03.736Z,2.93
2024-04-30T00:26:13.186Z,3.07
2024-04-30T00:29:15.737Z,3.40
2024-04-30T00:32:20.701Z,3.20
2024-04-30T00:35:28.304Z,2.93
2024-04-30T00:38:30.672Z,3.20
2024-04-30T00:41:35.699Z,3.07
2024-04-30T00:44:38.092Z,3.07
2024-04-30T00:47:43.181Z,3.43
2024-04-30T00:50:50.029Z,3.90
2024-04-30T00:53:55.420Z,3.30
2024-04-30T00:56:58.888Z,3.77
2024-04-30T01:00:03.734Z,3.07
2024-04-30T01:03:11.476Z,3.87
2024-04-30T01:06:18.888Z,3.50
2024-04-30T01:09:21.166Z,3.03
2024-04-30T01:12:27.636Z,3.37
2024-04-30T01:15:30.159Z,3.00
2024-04-30T01:18:35.712Z,3.10
2024-04-30T01:21:40.600Z,3.27
2024-04-30T01:24:48.043Z,3.10
2024-04-30T01:27:50.391Z,3.33
2024-04-30T01:30:55.168Z,3.50
2024-04-30T01:33:57.774Z,3.70
2024-04-30T01:37:02.655Z,3.33
2024-04-30T01:40:09.482Z,3.47
2024-04-30T01:43:14.396Z,3.57
2024-04-30T01:46:16.708Z,3.80
2024-04-30T01:49:21.985Z,3.50
2024-04-30T01:52:32.212Z,3.57
2024-04-30T01:55:37.137Z,3.43
2024-04-30T01:58:42.179Z,3.87
2024-04-30T02:01:44.576Z,4.00
2024-04-30T02:04:53.375Z,4.03
2024-04-30T02:07:58.861Z,3.40
2024-04-30T02:11:07.183Z,3.70
2024-04-30T02:14:12.492Z,3.60
2024-04-30T02:17:14.786Z,3.67
2024-04-30T02:20:19.785Z,3.90
2024-04-30T02:23:21.974Z,3.43
2024-04-30T02:26:29.382Z,3.37
2024-04-30T02:29:31.624Z,3.93
2024-04-30T02:32:53.388Z,3.63
2024-04-30T02:35:58.244Z,4.53
2024-04-30T02:39:04.157Z,4.33
2024-04-30T02:42:11.743Z,4.50
2024-04-30T02:45:16.675Z,4.60
2024-04-30T02:48:18.927Z,5.30
2024-04-30T02:51:24.058Z,4.60
2024-04-30T02:54:26.316Z,4.90
2024-04-30T02:57:33.739Z,5.00
2024-04-30T03:00:41.325Z,5.63
2024-04-30T03:03:46.618Z,4.93
2024-04-30T03:06:55.169Z,5.37
2024-04-30T03:09:57.407Z,5.53
2024-04-30T03:13:04.896Z,4.93
2024-04-30T03:16:07.169Z,4.37
2024-04-30T03:19:12.203Z,4.83
2024-04-30T03:22:19.577Z,4.43
2024-04-30T03:25:21.875Z,4.50
2024-04-30T03:28:31.772Z,4.60
2024-04-30T03:31:37.081Z,4.83
2024-04-30T03:34:39.473Z,4.17
2024-04-30T03:37:44.296Z,6.10
2024-04-30T03:40:49.168Z,5.17
2024-04-30T03:43:56.902Z,4.87
2024-04-30T03:47:01.857Z,5.10
2024-04-30T03:50:07.871Z,4.37
2024-04-30T03:53:13.462Z,4.90
2024-04-30T03:56:18.519Z,5.30
2024-04-30T03:59:26.252Z,5.23
2024-04-30T04:02:28.691Z,5.07
2024-04-30T04:05:33.904Z,4.90
2024-04-30T04:08:38.746Z,4.90
2024-04-30T04:12:00.044Z,4.83
2024-04-30T04:15:08.762Z,5.17
2024-04-30T04:18:16.498Z,5.43
2024-04-30T04:21:23.918Z,4.90
2024-04-30T04:24:29.359Z,4.67
2024-04-30T04:27:34.335Z,4.80
2024-04-30T04:30:39.165Z,4.93
2024-04-30T04:33:44.184Z,5.60
2024-04-30T04:36:49.037Z,5.77
2024-04-30T04:39:51.441Z,5.20
2024-04-30T04:42:56.437Z,5.73
2024-04-30T04:46:01.447Z,5.20
2024-04-30T04:49:08.188Z,5.53
2024-04-30T04:52:10.752Z,5.87
2024-04-30T04:55:15.733Z,5.47
2024-04-30T04:58:20.585Z,5.97
2024-04-30T05:01:28.160Z,6.80
2024-04-30T05:04:30.508Z,6.70
2024-04-30T05:07:37.377Z,6.73
2024-04-30T05:10:39.815Z,7.10
2024-04-30T05:13:45.296Z,7.40
2024-04-30T05:16:52.978Z,6.63
2024-04-30T05:19:57.838Z,6.57
2024-04-30T05:23:02.682Z,6.27
2024-04-30T05:26:05.156Z,6.53
2024-04-30T05:29:10.070Z,6.83
2024-04-30T05:32:17.497Z,7.23
2024-04-30T05:35:19.758Z,6.57
2024-04-30T05:38:24.986Z,6.80
2024-04-30T05:41:27.192Z,6.90
2024-04-30T05:44:32.018Z,6.77
2024-04-30T05:47:36.942Z,7.10
2024-04-30T05:50:44.764Z,7.10
2024-04-30T05:53:46.961Z,7.60
2024-04-30T05:56:51.796Z,7.60
2024-04-30T05:59:54.375Z,7.57
2024-04-30T06:03:03.842Z,8.60
2024-04-30T06:06:11.939Z,7.40
2024-04-30T06:09:16.756Z,7.37
2024-04-30T06:12:18.992Z,7.70
2024-04-30T06:15:23.856Z,6.90
2024-04-30T06:18:32.158Z,7.78
2024-04-30T06:21:38.169Z,6.93
2024-04-30T06:24:44.150Z,8.57
2024-04-30T06:27:51.070Z,7.70
2024-04-30T06:30:55.896Z,7.80
2024-04-30T06:34:03.492Z,8.07
2024-04-30T06:37:06.647Z,7.25
2024-04-30T06:40:12.866Z,7.07
2024-04-30T06:43:17.820Z,8.20
2024-04-30T06:46:20.134Z,6.97
2024-04-30T06:49:27.871Z,7.35
2024-04-30T06:52:35.814Z,6.38
2024-04-30T06:55:42.645Z,6.80
2024-04-30T06:58:45.100Z,7.18
2024-04-30T07:01:49.974Z,6.38
2024-04-30T07:04:54.914Z,6.35
2024-04-30T07:07:59.797Z,7.22
2024-04-30T07:11:03.085Z,6.60
2024-04-30T07:14:08.305Z,7.80
2024-04-30T07:17:11.127Z,6.53
2024-04-30T07:20:18.936Z,7.10
2024-04-30T07:23:21.536Z,7.13
2024-04-30T07:26:32.100Z,6.80
2024-04-30T07:29:34.321Z,6.22
2024-04-30T07:32:39.190Z,6.20
2024-04-30T07:35:44.172Z,5.60
2024-04-30T07:38:49.407Z,6.38
2024-04-30T07:41:57.086Z,6.28
2024-04-30T07:45:04.834Z,6.28
2024-04-30T07:48:08.929Z,6.25
2024-04-30T07:51:16.480Z,6.43
2024-04-30T07:54:21.786Z,5.93
2024-04-30T07:57:24.028Z,5.75
2024-04-30T08:00:29.152Z,5.60
2024-04-30T08:03:31.539Z,5.93
2024-04-30T08:06:39.021Z,6.18
2024-04-30T08:09:41.660Z,5.47
2024-04-30T08:12:46.430Z,5.63
2024-04-30T08:15:48.719Z,4.95
2024-04-30T08:18:55.580Z,4.57
2024-04-30T08:22:03.269Z,6.07
2024-04-30T08:25:11.363Z,5.40
2024-04-30T08:28:16.310Z,5.22
2024-04-30T08:31:19.021Z,4.40
2024-04-30T08:34:25.436Z,5.22
2024-04-30T08:37:32.594Z,4.90
2024-04-30T08:40:39.390Z,5.47
2024-04-30T08:43:42.894Z,5.38
2024-04-30T08:46:52.208Z,5.65
2024-04-30T08:50:09.380Z,5.60
2024-04-30T08:53:26.677Z,5.40
2024-04-30T08:56:31.633Z,4.95
2024-04-30T08:59:34.066Z,5.28
2024-04-30T09:02:42.441Z,4.68
2024-04-30T09:05:49.334Z,5.88
2024-04-30T09:08:56.765Z,5.43
2024-04-30T09:12:01.752Z,5.63
2024-04-30T09:15:07.731Z,4.70
2024-04-30T09:18:10.758Z,4.15
2024-04-30T09:21:26.149Z,3.78
2024-04-30T09:24:33.664Z,5.15
2024-04-30T09:27:39.647Z,4.97
2024-04-30T09:30:45.225Z,4.90
2024-04-30T09:34:00.163Z,5.05
2024-04-30T09:37:06.286Z,4.70
2024-04-30T09:40:14.016Z,4.55
2024-04-30T09:43:19.050Z,4.88
2024-04-30T09:46:24.421Z,4.50
2024-04-30T09:49:31.043Z,4.30
2024-04-30T09:52:40.057Z,4.13
2024-04-30T09:55:48.438Z,4.72
2024-04-30T09:58:51.068Z,5.18
2024-04-30T10:01:58.497Z,4.57
2024-04-30T10:05:03.355Z,4.80
2024-04-30T10:08:09.389Z,4.25
2024-04-30T10:11:16.884Z,4.15
2024-04-30T10:14:31.882Z,4.55
2024-04-30T10:17:41.335Z,3.80
2024-04-30T10:20:46.300Z,4.03
2024-04-30T10:23:51.616Z,3.70
2024-04-30T10:26:56.414Z,3.70
2024-04-30T10:30:02.817Z,3.30
2024-04-30T10:33:08.653Z,4.07
2024-04-30T10:36:16.121Z,3.90
2024-04-30T10:39:26.443Z,3.92
2024-04-30T10:42:39.719Z,3.83
2024-04-30T10:45:42.018Z,3.83
2024-04-30T10:48:51.600Z,3.72
2024-04-30T10:51:56.560Z,3.90
2024-04-30T10:55:01.704Z,3.72
2024-04-30T10:58:14.458Z,3.78
2024-04-30T11:01:26.451Z,3.88
2024-04-30T11:04:33.554Z,4.22
2024-04-30T11:07:36.146Z,3.88
2024-04-30T11:10:41.056Z,4.38
2024-04-30T11:13:49.309Z,4.05
2024-04-30T11:16:55.792Z,3.63
2024-04-30T11:20:01.926Z,3.70
2024-04-30T11:23:04.933Z,3.70
2024-04-30T11:26:10.803Z,3.13
2024-04-30T11:29:30.718Z,3.78
2024-04-30T11:32:42.803Z,3.03
2024-04-30T11:35:45.098Z,3.70
2024-04-30T11:38:50.502Z,3.17
2024-04-30T11:42:01.948Z,3.15
2024-04-30T11:45:25.855Z,2.90
2024-04-30T11:48:34.045Z,3.50
2024-04-30T11:51:39.801Z,3.08
2024-04-30T11:54:42.030Z,3.00
2024-04-30T11:57:46.823Z,3.05
2024-04-30T12:00:54.192Z,2.80
2024-04-30T12:04:01.320Z,2.80
2024-04-30T12:07:04.285Z,3.03
2024-04-30T12:10:11.066Z,3.10
2024-04-30T12:13:15.919Z,3.35
2024-04-30T12:16:20.900Z,2.65
2024-04-30T12:19:25.863Z,3.42
2024-04-30T12:22:31.047Z,2.75
2024-04-30T12:25:35.880Z,2.05
2024-04-30T12:28:42.536Z,2.25
2024-04-30T12:31:50.043Z,2.40
2024-04-30T12:34:52.322Z,2.08
2024-04-30T12:37:57.242Z,2.08
2024-04-30T12:40:59.476Z,2.30
2024-04-30T12:44:04.342Z,2.78
2024-04-30T12:47:12.083Z,2.83
2024-04-30T12:50:17.563Z,2.95
2024-04-30T12:53:22.357Z,2.53
2024-04-30T12:56:27.189Z,2.28
2024-04-30T12:59:32.282Z,2.45
2024-04-30T13:02:39.820Z,2.85
2024-04-30T13:05:42.231Z,2.80
2024-04-30T13:08:47.803Z,2.45
2024-04-30T13:11:50.084Z,2.47
2024-04-30T13:14:54.967Z,2.88
2024-04-30T13:18:03.277Z,2.25
2024-04-30T13:21:09.959Z,2.70
2024-04-30T13:24:15.172Z,2.45
2024-04-30T13:27:20.257Z,2.95
2024-04-30T13:30:25.052Z,2.70
2024-04-30T13:33:35.162Z,2.80
2024-04-30T13:36:37.509Z,3.20
2024-04-30T13:39:42.498Z,2.72
2024-04-30T13:42:47.257Z,2.88
2024-04-30T13:45:53.313Z,3.08
2024-04-30T13:49:04.570Z,3.10
2024-04-30T13:52:09.807Z,2.72
2024-04-30T13:55:12.327Z,2.40
2024-04-30T13:58:17.348Z,3.08
2024-04-30T14:01:19.730Z,3.22
2024-04-30T14:04:27.462Z,2.30
2024-04-30T14:07:32.451Z,2.55
2024-04-30T14:10:37.807Z,2.75
2024-04-30T14:13:42.838Z,2.63
2024-04-30T14:16:48.232Z,3.15
2024-04-30T14:19:53.460Z,2.40
2024-04-30T14:22:58.506Z,2.80
2024-04-30T14:26:07.561Z,3.25
2024-04-30T14:29:13.255Z,2.50
2024-04-30T14:32:18.305Z,2.63
2024-04-30T14:35:25.497Z,2.90
2024-04-30T14:38:30.362Z,2.58
2024-04-30T14:41:35.780Z,2.30
2024-04-30T14:44:38.067Z,2.42
2024-04-30T14:47:45.650Z,3.03
2024-04-30T14:50:52.082Z,2.22
2024-04-30T14:53:56.918Z,2.72
2024-04-30T14:56:59.535Z,2.33
2024-04-30T15:00:04.360Z,2.28
2024-04-30T15:03:06.968Z,2.90
2024-04-30T15:06:20.219Z,2.25
2024-04-30T15:09:22.692Z,3.10
2024-04-30T15:12:28.696Z,2.25
2024-04-30T15:15:30.960Z,2.85
2024-04-30T15:18:36.164Z,2.33
2024-04-30T15:21:44.562Z,2.70
2024-04-30T15:24:49.577Z,2.65
2024-04-30T15:27:54.378Z,2.78
2024-04-30T15:30:59.633Z,3.05
2024-04-30T15:34:01.947Z,2.25
2024-04-30T15:37:09.453Z,2.40
2024-04-30T15:40:14.691Z,2.50
2024-04-30T15:43:18.692Z,2.55
2024-04-30T15:46:24.049Z,2.88
2024-04-30T15:49:29.052Z,2.67
2024-04-30T15:52:33.995Z,2.47
2024-04-30T15:55:39.322Z,2.80
2024-04-30T15:58:42.066Z,2.53
2024-04-30T16:01:47.212Z,2.67
2024-04-30T16:04:49.892Z,2.58
2024-04-30T16:07:57.444Z,2.60
2024-04-30T16:11:09.221Z,3.05
2024-04-30T16:14:16.856Z,2.70
2024-04-30T16:17:21.200Z,2.95
2024-04-30T16:20:26.243Z,3.08
2024-04-30T16:23:31.015Z,2.50
2024-04-30T16:26:35.804Z,2.88
2024-04-30T16:29:38.050Z,2.53
2024-04-30T16:32:42.903Z,2.90
2024-04-30T16:35:45.548Z,2.67
2024-04-30T16:38:52.889Z,3.00
2024-04-30T16:41:55.133Z,2.83
2024-04-30T16:45:00.450Z,4.13
2024-04-30T16:48:10.114Z,3.22
2024-04-30T16:51:16.400Z,2.72
2024-04-30T16:54:24.664Z,2.90
2024-04-30T16:57:29.577Z,3.00
2024-04-30T17:00:31.961Z,2.50
2024-04-30T17:03:36.964Z,4.00
2024-04-30T17:06:48.128Z,3.17
2024-04-30T17:09:56.459Z,2.80
2024-04-30T17:13:01.443Z,3.35
2024-04-30T17:16:04.753Z,2.90
2024-04-30T17:19:10.384Z,2.88
2024-04-30T17:22:12.652Z,2.67
2024-04-30T17:25:20.513Z,3.30
2024-04-30T17:28:23.567Z,3.03
2024-04-30T17:31:28.593Z,2.70
2024-04-30T17:34:30.814Z,3.42
2024-04-30T17:37:38.058Z,2.95
2024-04-30T17:40:45.476Z,3.22
2024-04-30T17:43:47.759Z,3.38
2024-04-30T17:46:52.589Z,4.10
2024-04-30T17:49:55.191Z,3.88
2024-04-30T17:53:00.115Z,3.28
2024-04-30T17:56:08.178Z,13.93
2024-04-30T17:59:13.731Z,6.32
2024-04-30T18:02:18.670Z,4.15
2024-04-30T18:05:20.980Z,4.95
2024-04-30T18:08:25.753Z,4.80
2024-04-30T18:11:33.411Z,4.70
2024-04-30T18:14:40.471Z,5.00
2024-04-30T18:17:45.260Z,5.35
2024-04-30T18:20:47.525Z,4.97
2024-04-30T18:23:52.625Z,5.35
2024-04-30T18:27:00.026Z,4.85
2024-04-30T18:30:02.320Z,4.47
2024-04-30T18:33:07.631Z,4.22
2024-04-30T18:36:10.145Z,4.30
2024-04-30T18:39:16.202Z,4.32
2024-04-30T18:42:22.068Z,8.15
2024-04-30T18:45:26.978Z,7.88
2024-04-30T18:48:32.072Z,7.55
2024-04-30T18:51:42.137Z,5.97
2024-04-30T18:54:44.507Z,5.40
2024-04-30T18:57:52.032Z,5.93
2024-04-30T19:00:54.365Z,8.77
2024-04-30T19:09:06.794Z,6.22
2024-04-30T19:12:11.689Z,6.20
2024-04-30T19:15:16.629Z,6.03
2024-04-30T19:18:21.577Z,5.82
2024-04-30T19:21:27.045Z,6.85
2024-04-30T19:24:31.914Z,6.03
2024-04-30T19:27:34.310Z,6.18
2024-04-30T19:30:41.833Z,6.00
2024-04-30T19:33:44.182Z,5.70
2024-04-30T19:36:49.157Z,5.82
2024-04-30T19:39:54.143Z,6.20
2024-04-30T19:42:59.595Z,5.63
2024-04-30T19:46:07.690Z,6.43
2024-04-30T19:49:10.143Z,6.03
2024-04-30T19:52:15.004Z,6.43
2024-04-30T19:55:17.465Z,6.10
2024-04-30T19:58:23.878Z,6.40
2024-04-30T20:01:31.282Z,5.30
2024-04-30T20:04:39.594Z,11.48
2024-04-30T20:07:42.646Z,8.45
2024-04-30T20:10:47.459Z,9.63
2024-04-30T20:13:53.565Z,7.50
2024-04-30T20:16:58.507Z,7.00
2024-04-30T20:20:03.510Z,5.93
2024-04-30T20:23:08.412Z,6.50
2024-04-30T20:26:30.679Z,6.43
2024-04-30T20:29:33.129Z,6.32
2024-04-30T20:32:41.038Z,6.82
2024-04-30T20:35:53.800Z,6.95
2024-04-30T20:39:01.382Z,6.90
2024-04-30T20:42:14.233Z,7.22
2024-04-30T20:45:21.656Z,6.82
2024-04-30T20:48:29.308Z,6.65
2024-04-30T20:51:34.227Z,6.78
2024-04-30T20:54:39.135Z,6.50
2024-04-30T20:57:44.002Z,6.68
2024-04-30T21:00:52.299Z,6.78
2024-04-30T21:04:00.041Z,8.70
2024-04-30T21:07:02.463Z,7.43
2024-04-30T21:10:07.972Z,6.90
2024-04-30T21:13:15.621Z,7.72
2024-04-30T21:16:17.821Z,7.82
2024-04-30T21:19:25.445Z,7.78
2024-04-30T21:22:32.521Z,8.48
2024-04-30T21:25:37.638Z,8.77
2024-04-30T21:28:42.536Z,9.88
2024-04-30T21:31:47.338Z,8.63
2024-04-30T21:34:52.213Z,7.22
2024-04-30T21:37:57.137Z,7.47
2024-04-30T21:41:01.986Z,8.20
2024-04-30T21:44:07.090Z,7.70
2024-04-30T21:47:11.972Z,7.80
2024-04-30T21:50:19.439Z,6.82
2024-04-30T21:53:21.699Z,7.15
2024-04-30T21:56:29.690Z,7.28
2024-04-30T21:59:34.835Z,6.22
2024-04-30T22:02:37.226Z,6.80
2024-04-30T22:05:44.732Z,7.32
2024-04-30T22:08:48.648Z,7.22
2024-04-30T22:11:57.167Z,7.65
2024-04-30T22:14:59.740Z,6.30
2024-04-30T22:18:04.725Z,7.50
2024-04-30T22:21:15.324Z,7.18
2024-04-30T22:24:22.083Z,7.07
2024-04-30T22:27:24.769Z,8.48
2024-04-30T22:30:29.685Z,8.23
2024-04-30T22:33:32.107Z,6.47
2024-04-30T22:36:40.179Z,8.18
2024-04-30T22:39:42.498Z,6.65
2024-04-30T22:42:47.397Z,6.93
2024-04-30T22:45:53.077Z,7.18
2024-04-30T22:48:55.914Z,6.63
2024-04-30T22:52:03.423Z,7.50
2024-04-30T22:55:06.670Z,6.70
2024-04-30T22:58:11.567Z,7.35
2024-04-30T23:01:17.100Z,7.40
2024-04-30T23:04:22.152Z,6.60
2024-04-30T23:07:27.031Z,7.22
2024-04-30T23:10:31.800Z,7.75
2024-04-30T23:13:34.130Z,7.25
2024-04-30T23:16:39.099Z,6.78
2024-04-30T23:19:41.407Z,7.78
2024-04-30T23:22:48.766Z,6.70
2024-04-30T23:25:55.779Z,6.75
2024-04-30T23:29:00.966Z,6.45
2024-04-30T23:32:06.350Z,6.90
2024-04-30T23:35:11.219Z,6.90
2024-04-30T23:38:15.982Z,6.40
2024-04-30T23:41:20.870Z,7.25
2024-04-30T23:44:25.720Z,7.00
2024-04-30T23:47:30.605Z,6.78
2024-04-30T23:50:35.469Z,6.93
2024-04-30T23:53:40.657Z,6.78
2024-04-30T23:56:45.576Z,7.03
2024-04-30T23:59:47.813Z,7.05
